sensor_id;sensor_type;location;lat;lon;timestamp;temperature;humidity
14101;DHT22;7127;49.372;8.166;2024-01-11T00:00:31;1.60;43.50
14101;DHT22;7127;49.372;8.166;2024-01-11T00:02:59;1.60;43.50
14101;DHT22;7127;49.372;8.166;2024-01-11T00:05:26;1.60;43.70
14101;DHT22;7127;49.372;8.166;2024-01-11T00:07:53;1.60;43.80
14101;DHT22;7127;49.372;8.166;2024-01-11T00:10:20;1.70;43.90
14101;DHT22;7127;49.372;8.166;2024-01-11T00:12:47;1.70;44.10
14101;DHT22;7127;49.372;8.166;2024-01-11T00:15:14;1.70;43.90
14101;DHT22;7127;49.372;8.166;2024-01-11T00:17:41;1.50;44.00
14101;DHT22;7127;49.372;8.166;2024-01-11T00:20:10;1.50;44.10
14101;DHT22;7127;49.372;8.166;2024-01-11T00:22:37;1.50;44.80
14101;DHT22;7127;49.372;8.166;2024-01-11T00:25:04;1.50;44.10
14101;DHT22;7127;49.372;8.166;2024-01-11T00:27:31;1.50;44.00
14101;DHT22;7127;49.372;8.166;2024-01-11T00:29:58;1.60;44.00
14101;DHT22;7127;49.372;8.166;2024-01-11T00:32:25;1.60;44.10
14101;DHT22;7127;49.372;8.166;2024-01-11T00:34:52;1.60;44.10
14101;DHT22;7127;49.372;8.166;2024-01-11T00:37:20;1.60;44.00
14101;DHT22;7127;49.372;8.166;2024-01-11T00:39:47;1.70;44.20
14101;DHT22;7127;49.372;8.166;2024-01-11T00:42:14;2.00;44.10
14101;DHT22;7127;49.372;8.166;2024-01-11T00:44:41;1.70;44.00
14101;DHT22;7127;49.372;8.166;2024-01-11T00:47:10;1.70;43.90
14101;DHT22;7127;49.372;8.166;2024-01-11T00:49:37;1.70;43.90
14101;DHT22;7127;49.372;8.166;2024-01-11T00:52:04;1.80;43.90
14101;DHT22;7127;49.372;8.166;2024-01-11T00:54:32;1.80;44.20
14101;DHT22;7127;49.372;8.166;2024-01-11T00:56:59;1.80;44.20
14101;DHT22;7127;49.372;8.166;2024-01-11T00:59:26;1.80;44.00
14101;DHT22;7127;49.372;8.166;2024-01-11T01:01:53;1.80;43.90
14101;DHT22;7127;49.372;8.166;2024-01-11T01:04:20;1.80;44.60
14101;DHT22;7127;49.372;8.166;2024-01-11T01:06:47;1.80;44.60
14101;DHT22;7127;49.372;8.166;2024-01-11T01:09:13;1.80;43.90
14101;DHT22;7127;49.372;8.166;2024-01-11T01:11:42;1.80;43.90
14101;DHT22;7127;49.372;8.166;2024-01-11T01:14:09;1.80;44.00
14101;DHT22;7127;49.372;8.166;2024-01-11T01:16:35;1.80;44.00
14101;DHT22;7127;49.372;8.166;2024-01-11T01:19:02;2.30;44.30
14101;DHT22;7127;49.372;8.166;2024-01-11T01:21:29;1.90;44.10
14101;DHT22;7127;49.372;8.166;2024-01-11T01:23:56;1.90;44.00
14101;DHT22;7127;49.372;8.166;2024-01-11T01:26:23;1.90;44.00
14101;DHT22;7127;49.372;8.166;2024-01-11T01:28:51;3.10;44.90
14101;DHT22;7127;49.372;8.166;2024-01-11T01:31:18;1.90;44.00
14101;DHT22;7127;49.372;8.166;2024-01-11T01:33:45;1.90;44.00
14101;DHT22;7127;49.372;8.166;2024-01-11T01:36:12;1.90;44.00
14101;DHT22;7127;49.372;8.166;2024-01-11T01:38:39;1.90;44.00
14101;DHT22;7127;49.372;8.166;2024-01-11T01:41:05;1.90;43.90
14101;DHT22;7127;49.372;8.166;2024-01-11T01:43:33;1.90;43.90
14101;DHT22;7127;49.372;8.166;2024-01-11T01:46:02;2.60;44.40
14101;DHT22;7127;49.372;8.166;2024-01-11T01:48:30;2.00;44.10
14101;DHT22;7127;49.372;8.166;2024-01-11T01:50:57;2.00;44.00
14101;DHT22;7127;49.372;8.166;2024-01-11T01:53:24;2.00;43.90
14101;DHT22;7127;49.372;8.166;2024-01-11T01:55:54;2.00;43.90
14101;DHT22;7127;49.372;8.166;2024-01-11T01:58:21;2.00;43.90
14101;DHT22;7127;49.372;8.166;2024-01-11T02:00:50;2.00;44.60
14101;DHT22;7127;49.372;8.166;2024-01-11T02:03:19;1.90;43.80
14101;DHT22;7127;49.372;8.166;2024-01-11T02:05:46;3.10;44.70
14101;DHT22;7127;49.372;8.166;2024-01-11T02:08:16;2.00;43.90
14101;DHT22;7127;49.372;8.166;2024-01-11T02:10:45;2.00;44.10
14101;DHT22;7127;49.372;8.166;2024-01-11T02:13:12;2.00;44.70
14101;DHT22;7127;49.372;8.166;2024-01-11T02:15:39;2.00;44.10
14101;DHT22;7127;49.372;8.166;2024-01-11T02:18:06;2.10;44.10
14101;DHT22;7127;49.372;8.166;2024-01-11T02:20:34;2.00;43.90
14101;DHT22;7127;49.372;8.166;2024-01-11T02:23:17;2.00;43.90
14101;DHT22;7127;49.372;8.166;2024-01-11T02:25:45;2.00;44.00
14101;DHT22;7127;49.372;8.166;2024-01-11T02:28:12;2.00;44.10
14101;DHT22;7127;49.372;8.166;2024-01-11T02:30:39;2.00;44.10
14101;DHT22;7127;49.372;8.166;2024-01-11T02:33:06;2.00;44.10
14101;DHT22;7127;49.372;8.166;2024-01-11T02:35:34;2.00;44.10
14101;DHT22;7127;49.372;8.166;2024-01-11T02:38:03;2.00;44.10
14101;DHT22;7127;49.372;8.166;2024-01-11T02:40:30;2.00;44.10
14101;DHT22;7127;49.372;8.166;2024-01-11T02:42:58;2.00;44.10
14101;DHT22;7127;49.372;8.166;2024-01-11T02:45:32;2.20;44.20
14101;DHT22;7127;49.372;8.166;2024-01-11T02:47:59;2.10;44.10
14101;DHT22;7127;49.372;8.166;2024-01-11T02:50:26;2.00;44.00
14101;DHT22;7127;49.372;8.166;2024-01-11T02:52:53;2.10;44.10
14101;DHT22;7127;49.372;8.166;2024-01-11T02:55:20;2.10;44.60
14101;DHT22;7127;49.372;8.166;2024-01-11T02:57:45;2.10;44.00
14101;DHT22;7127;49.372;8.166;2024-01-11T03:00:14;2.10;44.10
14101;DHT22;7127;49.372;8.166;2024-01-11T03:02:41;2.10;44.10
14101;DHT22;7127;49.372;8.166;2024-01-11T03:05:08;2.10;44.10
14101;DHT22;7127;49.372;8.166;2024-01-11T03:07:35;2.10;44.10
14101;DHT22;7127;49.372;8.166;2024-01-11T03:10:02;2.10;44.00
14101;DHT22;7127;49.372;8.166;2024-01-11T03:12:29;2.10;44.00
14101;DHT22;7127;49.372;8.166;2024-01-11T03:14:56;2.10;44.00
14101;DHT22;7127;49.372;8.166;2024-01-11T03:17:24;2.10;43.90
14101;DHT22;7127;49.372;8.166;2024-01-11T03:19:51;2.10;44.10
14101;DHT22;7127;49.372;8.166;2024-01-11T03:22:18;2.10;44.10
14101;DHT22;7127;49.372;8.166;2024-01-11T03:24:44;2.00;43.90
14101;DHT22;7127;49.372;8.166;2024-01-11T03:27:11;2.00;44.00
14101;DHT22;7127;49.372;8.166;2024-01-11T03:29:38;2.00;44.10
14101;DHT22;7127;49.372;8.166;2024-01-11T03:32:05;2.00;44.10
14101;DHT22;7127;49.372;8.166;2024-01-11T03:34:33;2.00;44.10
14101;DHT22;7127;49.372;8.166;2024-01-11T03:37:00;2.00;44.70
14101;DHT22;7127;49.372;8.166;2024-01-11T03:39:27;2.00;44.20
14101;DHT22;7127;49.372;8.166;2024-01-11T03:41:54;1.90;44.20
14101;DHT22;7127;49.372;8.166;2024-01-11T03:44:20;1.90;44.10
14101;DHT22;7127;49.372;8.166;2024-01-11T03:46:47;1.90;44.10
14101;DHT22;7127;49.372;8.166;2024-01-11T03:49:14;1.90;44.10
14101;DHT22;7127;49.372;8.166;2024-01-11T03:51:43;1.90;44.10
14101;DHT22;7127;49.372;8.166;2024-01-11T03:54:10;1.90;44.10
14101;DHT22;7127;49.372;8.166;2024-01-11T03:56:38;1.90;44.10
14101;DHT22;7127;49.372;8.166;2024-01-11T03:59:05;1.80;44.20
14101;DHT22;7127;49.372;8.166;2024-01-11T04:01:32;1.90;44.20
14101;DHT22;7127;49.372;8.166;2024-01-11T04:04:00;1.80;44.20
14101;DHT22;7127;49.372;8.166;2024-01-11T04:06:27;1.80;44.10
14101;DHT22;7127;49.372;8.166;2024-01-11T04:08:55;1.90;44.20
14101;DHT22;7127;49.372;8.166;2024-01-11T04:11:22;1.80;44.20
14101;DHT22;7127;49.372;8.166;2024-01-11T04:13:49;1.80;44.20
14101;DHT22;7127;49.372;8.166;2024-01-11T04:16:16;1.80;44.20
14101;DHT22;7127;49.372;8.166;2024-01-11T04:18:43;2.10;44.40
14101;DHT22;7127;49.372;8.166;2024-01-11T04:21:20;1.80;44.80
14101;DHT22;7127;49.372;8.166;2024-01-11T04:23:47;1.80;44.30
14101;DHT22;7127;49.372;8.166;2024-01-11T04:26:16;1.80;44.80
14101;DHT22;7127;49.372;8.166;2024-01-11T04:28:44;1.90;44.30
14101;DHT22;7127;49.372;8.166;2024-01-11T04:31:11;1.80;44.20
14101;DHT22;7127;49.372;8.166;2024-01-11T04:33:40;1.80;44.20
14101;DHT22;7127;49.372;8.166;2024-01-11T04:36:10;1.80;44.20
14101;DHT22;7127;49.372;8.166;2024-01-11T04:38:37;1.80;44.20
14101;DHT22;7127;49.372;8.166;2024-01-11T04:41:07;1.70;44.20
14101;DHT22;7127;49.372;8.166;2024-01-11T04:43:37;2.10;44.60
14101;DHT22;7127;49.372;8.166;2024-01-11T04:46:12;1.70;44.40
14101;DHT22;7127;49.372;8.166;2024-01-11T04:48:38;1.70;44.40
14101;DHT22;7127;49.372;8.166;2024-01-11T04:51:05;1.70;44.30
14101;DHT22;7127;49.372;8.166;2024-01-11T04:53:32;1.70;44.50
14101;DHT22;7127;49.372;8.166;2024-01-11T04:55:59;2.10;44.70
14101;DHT22;7127;49.372;8.166;2024-01-11T04:58:26;1.70;44.40
14101;DHT22;7127;49.372;8.166;2024-01-11T05:00:54;1.70;44.40
14101;DHT22;7127;49.372;8.166;2024-01-11T05:03:21;1.70;44.40
14101;DHT22;7127;49.372;8.166;2024-01-11T05:05:48;1.70;44.30
14101;DHT22;7127;49.372;8.166;2024-01-11T05:08:15;1.70;44.40
14101;DHT22;7127;49.372;8.166;2024-01-11T05:10:41;1.70;44.40
14101;DHT22;7127;49.372;8.166;2024-01-11T05:13:10;1.70;44.30
14101;DHT22;7127;49.372;8.166;2024-01-11T05:15:37;2.40;44.80
14101;DHT22;7127;49.372;8.166;2024-01-11T05:18:05;1.90;44.50
14101;DHT22;7127;49.372;8.166;2024-01-11T05:20:32;1.80;44.40
14101;DHT22;7127;49.372;8.166;2024-01-11T05:22:59;1.70;44.90
14101;DHT22;7127;49.372;8.166;2024-01-11T05:25:27;1.70;44.30
14101;DHT22;7127;49.372;8.166;2024-01-11T05:27:53;1.60;44.20
14101;DHT22;7127;49.372;8.166;2024-01-11T05:30:20;1.70;44.40
14101;DHT22;7127;49.372;8.166;2024-01-11T05:32:47;1.60;44.20
14101;DHT22;7127;49.372;8.166;2024-01-11T05:35:15;1.60;44.40
14101;DHT22;7127;49.372;8.166;2024-01-11T05:37:42;1.60;44.40
14101;DHT22;7127;49.372;8.166;2024-01-11T05:40:09;1.60;44.30
14101;DHT22;7127;49.372;8.166;2024-01-11T05:42:36;1.50;44.30
14101;DHT22;7127;49.372;8.166;2024-01-11T05:45:04;2.00;44.70
14101;DHT22;7127;49.372;8.166;2024-01-11T05:47:31;1.50;44.40
14101;DHT22;7127;49.372;8.166;2024-01-11T05:49:58;1.50;44.40
14101;DHT22;7127;49.372;8.166;2024-01-11T05:52:26;1.50;44.40
14101;DHT22;7127;49.372;8.166;2024-01-11T05:54:53;1.50;44.40
14101;DHT22;7127;49.372;8.166;2024-01-11T05:57:20;1.40;44.40
14101;DHT22;7127;49.372;8.166;2024-01-11T05:59:46;1.60;44.50
14101;DHT22;7127;49.372;8.166;2024-01-11T06:02:25;1.40;44.40
14101;DHT22;7127;49.372;8.166;2024-01-11T06:04:52;1.40;45.10
14101;DHT22;7127;49.372;8.166;2024-01-11T06:07:18;1.70;44.80
14101;DHT22;7127;49.372;8.166;2024-01-11T06:09:47;1.30;44.50
14101;DHT22;7127;49.372;8.166;2024-01-11T06:12:14;1.50;44.70
14101;DHT22;7127;49.372;8.166;2024-01-11T06:14:41;1.20;44.50
14101;DHT22;7127;49.372;8.166;2024-01-11T06:17:07;1.30;44.70
14101;DHT22;7127;49.372;8.166;2024-01-11T06:19:36;1.30;44.70
14101;DHT22;7127;49.372;8.166;2024-01-11T06:22:04;1.40;44.90
14101;DHT22;7127;49.372;8.166;2024-01-11T06:24:31;1.30;44.80
14101;DHT22;7127;49.372;8.166;2024-01-11T06:26:59;1.30;44.80
14101;DHT22;7127;49.372;8.166;2024-01-11T06:29:26;1.30;44.90
14101;DHT22;7127;49.372;8.166;2024-01-11T06:31:53;1.20;44.80
14101;DHT22;7127;49.372;8.166;2024-01-11T06:34:20;1.30;44.80
14101;DHT22;7127;49.372;8.166;2024-01-11T06:36:46;1.30;44.80
14101;DHT22;7127;49.372;8.166;2024-01-11T06:39:13;1.30;44.90
14101;DHT22;7127;49.372;8.166;2024-01-11T06:41:40;1.30;44.90
14101;DHT22;7127;49.372;8.166;2024-01-11T06:44:09;1.30;44.90
14101;DHT22;7127;49.372;8.166;2024-01-11T06:46:36;1.30;44.90
14101;DHT22;7127;49.372;8.166;2024-01-11T06:49:04;1.30;45.00
14101;DHT22;7127;49.372;8.166;2024-01-11T06:51:31;1.20;44.80
14101;DHT22;7127;49.372;8.166;2024-01-11T06:54:00;1.30;44.80
14101;DHT22;7127;49.372;8.166;2024-01-11T06:56:27;1.30;45.00
14101;DHT22;7127;49.372;8.166;2024-01-11T06:58:54;1.30;44.90
14101;DHT22;7127;49.372;8.166;2024-01-11T07:01:23;1.30;44.90
14101;DHT22;7127;49.372;8.166;2024-01-11T07:03:49;1.20;44.80
14101;DHT22;7127;49.372;8.166;2024-01-11T07:06:16;1.30;45.00
14101;DHT22;7127;49.372;8.166;2024-01-11T07:08:43;1.30;45.00
14101;DHT22;7127;49.372;8.166;2024-01-11T07:11:10;1.20;44.80
14101;DHT22;7127;49.372;8.166;2024-01-11T07:13:37;1.20;44.80
14101;DHT22;7127;49.372;8.166;2024-01-11T07:16:04;1.20;44.80
14101;DHT22;7127;49.372;8.166;2024-01-11T07:18:32;1.20;45.10
14101;DHT22;7127;49.372;8.166;2024-01-11T07:21:00;1.20;45.00
14101;DHT22;7127;49.372;8.166;2024-01-11T07:23:27;1.10;45.30
14101;DHT22;7127;49.372;8.166;2024-01-11T07:25:53;1.10;45.20
14101;DHT22;7127;49.372;8.166;2024-01-11T07:28:20;1.00;45.40
14101;DHT22;7127;49.372;8.166;2024-01-11T07:30:51;1.00;45.10
14101;DHT22;7127;49.372;8.166;2024-01-11T07:33:18;1.00;45.50
14101;DHT22;7127;49.372;8.166;2024-01-11T07:35:46;0.90;45.50
14101;DHT22;7127;49.372;8.166;2024-01-11T07:38:13;0.90;45.40
14101;DHT22;7127;49.372;8.166;2024-01-11T07:40:40;0.80;45.70
14101;DHT22;7127;49.372;8.166;2024-01-11T07:43:07;0.90;45.90
14101;DHT22;7127;49.372;8.166;2024-01-11T07:45:34;0.80;45.70
14101;DHT22;7127;49.372;8.166;2024-01-11T07:48:00;0.80;45.70
14101;DHT22;7127;49.372;8.166;2024-01-11T07:50:29;0.80;45.80
14101;DHT22;7127;49.372;8.166;2024-01-11T07:52:57;0.80;45.90
14101;DHT22;7127;49.372;8.166;2024-01-11T07:55:24;0.80;45.60
14101;DHT22;7127;49.372;8.166;2024-01-11T07:57:51;0.80;46.10
14101;DHT22;7127;49.372;8.166;2024-01-11T08:00:18;0.80;45.90
14101;DHT22;7127;49.372;8.166;2024-01-11T08:02:45;0.80;46.20
14101;DHT22;7127;49.372;8.166;2024-01-11T08:05:12;0.80;46.10
14101;DHT22;7127;49.372;8.166;2024-01-11T08:07:39;0.80;46.00
14101;DHT22;7127;49.372;8.166;2024-01-11T08:10:09;0.80;45.90
14101;DHT22;7127;49.372;8.166;2024-01-11T08:12:36;0.80;45.90
14101;DHT22;7127;49.372;8.166;2024-01-11T08:15:04;0.90;45.90
14101;DHT22;7127;49.372;8.166;2024-01-11T08:17:30;0.90;45.90
14101;DHT22;7127;49.372;8.166;2024-01-11T08:19:57;0.90;46.10
14101;DHT22;7127;49.372;8.166;2024-01-11T08:22:24;0.90;46.10
14101;DHT22;7127;49.372;8.166;2024-01-11T08:24:52;1.00;46.00
14101;DHT22;7127;49.372;8.166;2024-01-11T08:27:22;1.00;46.20
14101;DHT22;7127;49.372;8.166;2024-01-11T08:29:49;1.00;46.10
14101;DHT22;7127;49.372;8.166;2024-01-11T08:32:16;1.00;46.10
14101;DHT22;7127;49.372;8.166;2024-01-11T08:34:43;1.10;46.10
14101;DHT22;7127;49.372;8.166;2024-01-11T08:37:10;1.10;46.00
14101;DHT22;7127;49.372;8.166;2024-01-11T08:39:37;1.30;45.70
14101;DHT22;7127;49.372;8.166;2024-01-11T08:42:04;1.20;46.00
14101;DHT22;7127;49.372;8.166;2024-01-11T08:44:32;1.30;45.90
14101;DHT22;7127;49.372;8.166;2024-01-11T08:46:59;1.40;45.90
14101;DHT22;7127;49.372;8.166;2024-01-11T08:49:26;1.40;46.50
14101;DHT22;7127;49.372;8.166;2024-01-11T08:51:52;1.40;46.00
14101;DHT22;7127;49.372;8.166;2024-01-11T08:54:19;1.40;45.80
14101;DHT22;7127;49.372;8.166;2024-01-11T08:56:46;1.50;45.90
14101;DHT22;7127;49.372;8.166;2024-01-11T08:59:13;1.60;46.00
14101;DHT22;7127;49.372;8.166;2024-01-11T09:01:42;1.60;46.00
14101;DHT22;7127;49.372;8.166;2024-01-11T09:04:08;1.60;46.60
14101;DHT22;7127;49.372;8.166;2024-01-11T09:06:35;1.70;46.10
14101;DHT22;7127;49.372;8.166;2024-01-11T09:09:02;1.70;46.00
14101;DHT22;7127;49.372;8.166;2024-01-11T09:11:35;1.90;46.10
14101;DHT22;7127;49.372;8.166;2024-01-11T09:14:02;1.80;45.90
14101;DHT22;7127;49.372;8.166;2024-01-11T09:16:29;1.90;45.90
14101;DHT22;7127;49.372;8.166;2024-01-11T09:18:57;2.00;45.90
14101;DHT22;7127;49.372;8.166;2024-01-11T09:21:25;2.00;45.90
14101;DHT22;7127;49.372;8.166;2024-01-11T09:23:52;2.00;45.80
14101;DHT22;7127;49.372;8.166;2024-01-11T09:26:19;2.10;45.80
14101;DHT22;7127;49.372;8.166;2024-01-11T09:28:45;2.10;45.80
14101;DHT22;7127;49.372;8.166;2024-01-11T09:31:13;2.20;45.80
14101;DHT22;7127;49.372;8.166;2024-01-11T09:33:39;2.20;45.80
14101;DHT22;7127;49.372;8.166;2024-01-11T09:36:09;2.20;45.80
14101;DHT22;7127;49.372;8.166;2024-01-11T09:38:36;2.30;45.90
14101;DHT22;7127;49.372;8.166;2024-01-11T09:41:07;2.30;45.80
14101;DHT22;7127;49.372;8.166;2024-01-11T09:43:35;2.40;45.80
14101;DHT22;7127;49.372;8.166;2024-01-11T09:46:04;2.40;45.80
14101;DHT22;7127;49.372;8.166;2024-01-11T09:48:32;2.40;45.70
14101;DHT22;7127;49.372;8.166;2024-01-11T09:51:01;2.40;45.70
14101;DHT22;7127;49.372;8.166;2024-01-11T09:53:32;2.50;45.70
14101;DHT22;7127;49.372;8.166;2024-01-11T09:55:59;2.50;45.60
14101;DHT22;7127;49.372;8.166;2024-01-11T09:58:26;2.60;45.70
14101;DHT22;7127;49.372;8.166;2024-01-11T10:00:54;2.60;45.70
14101;DHT22;7127;49.372;8.166;2024-01-11T10:03:23;2.60;45.70
14101;DHT22;7127;49.372;8.166;2024-01-11T10:05:51;2.60;45.70
14101;DHT22;7127;49.372;8.166;2024-01-11T10:08:20;2.60;45.70
14101;DHT22;7127;49.372;8.166;2024-01-11T10:10:49;2.70;45.70
14101;DHT22;7127;49.372;8.166;2024-01-11T10:13:16;2.70;45.70
14101;DHT22;7127;49.372;8.166;2024-01-11T10:15:43;2.70;45.70
14101;DHT22;7127;49.372;8.166;2024-01-11T10:18:10;2.80;45.70
14101;DHT22;7127;49.372;8.166;2024-01-11T10:20:38;2.80;45.70
14101;DHT22;7127;49.372;8.166;2024-01-11T10:23:04;2.80;45.60
14101;DHT22;7127;49.372;8.166;2024-01-11T10:25:31;2.80;45.50
14101;DHT22;7127;49.372;8.166;2024-01-11T10:27:59;2.90;45.50
14101;DHT22;7127;49.372;8.166;2024-01-11T10:30:26;2.90;45.50
14101;DHT22;7127;49.372;8.166;2024-01-11T10:32:53;2.90;45.50
14101;DHT22;7127;49.372;8.166;2024-01-11T10:35:20;3.00;45.60
14101;DHT22;7127;49.372;8.166;2024-01-11T10:37:51;3.00;45.60
14101;DHT22;7127;49.372;8.166;2024-01-11T10:40:20;3.00;45.60
14101;DHT22;7127;49.372;8.166;2024-01-11T10:42:51;3.00;45.60
14101;DHT22;7127;49.372;8.166;2024-01-11T10:45:20;3.10;45.70
14101;DHT22;7127;49.372;8.166;2024-01-11T10:47:53;3.10;45.70
14101;DHT22;7127;49.372;8.166;2024-01-11T10:50:22;3.10;45.70
14101;DHT22;7127;49.372;8.166;2024-01-11T10:53:04;3.20;45.70
14101;DHT22;7127;49.372;8.166;2024-01-11T10:55:35;3.20;45.70
14101;DHT22;7127;49.372;8.166;2024-01-11T10:58:03;3.30;45.80
14101;DHT22;7127;49.372;8.166;2024-01-11T11:00:34;3.30;45.80
14101;DHT22;7127;49.372;8.166;2024-01-11T11:03:03;3.40;45.70
14101;DHT22;7127;49.372;8.166;2024-01-11T11:05:32;3.40;45.60
14101;DHT22;7127;49.372;8.166;2024-01-11T11:08:02;3.40;45.60
14101;DHT22;7127;49.372;8.166;2024-01-11T11:10:32;3.50;45.50
14101;DHT22;7127;49.372;8.166;2024-01-11T11:13:00;3.50;45.50
14101;DHT22;7127;49.372;8.166;2024-01-11T11:15:36;3.60;45.50
14101;DHT22;7127;49.372;8.166;2024-01-11T11:18:04;3.60;45.40
14101;DHT22;7127;49.372;8.166;2024-01-11T11:20:32;3.60;45.30
14101;DHT22;7127;49.372;8.166;2024-01-11T11:23:06;3.70;45.30
14101;DHT22;7127;49.372;8.166;2024-01-11T11:25:35;3.70;45.40
14101;DHT22;7127;49.372;8.166;2024-01-11T11:28:02;3.70;45.40
14101;DHT22;7127;49.372;8.166;2024-01-11T11:30:30;3.80;45.40
14101;DHT22;7127;49.372;8.166;2024-01-11T11:32:58;3.80;45.40
14101;DHT22;7127;49.372;8.166;2024-01-11T11:35:33;3.80;45.40
14101;DHT22;7127;49.372;8.166;2024-01-11T11:38:00;3.80;45.30
14101;DHT22;7127;49.372;8.166;2024-01-11T11:40:32;3.80;45.30
14101;DHT22;7127;49.372;8.166;2024-01-11T11:43:04;3.90;45.30
14101;DHT22;7127;49.372;8.166;2024-01-11T11:45:32;3.90;45.30
14101;DHT22;7127;49.372;8.166;2024-01-11T11:48:00;3.90;45.20
14101;DHT22;7127;49.372;8.166;2024-01-11T11:50:29;4.00;45.30
14101;DHT22;7127;49.372;8.166;2024-01-11T11:52:58;4.00;45.30
14101;DHT22;7127;49.372;8.166;2024-01-11T11:55:25;4.00;45.20
14101;DHT22;7127;49.372;8.166;2024-01-11T11:57:52;4.10;45.20
14101;DHT22;7127;49.372;8.166;2024-01-11T12:00:20;4.10;45.10
14101;DHT22;7127;49.372;8.166;2024-01-11T12:02:51;4.10;45.10
14101;DHT22;7127;49.372;8.166;2024-01-11T12:32:22;4.30;45.00
14101;DHT22;7127;49.372;8.166;2024-01-11T12:34:49;4.30;45.00
14101;DHT22;7127;49.372;8.166;2024-01-11T12:37:17;4.40;45.00
14101;DHT22;7127;49.372;8.166;2024-01-11T12:39:44;4.40;45.00
14101;DHT22;7127;49.372;8.166;2024-01-11T12:42:11;4.40;44.90
14101;DHT22;7127;49.372;8.166;2024-01-11T12:44:39;4.40;44.90
14101;DHT22;7127;49.372;8.166;2024-01-11T12:47:07;4.70;45.10
14101;DHT22;7127;49.372;8.166;2024-01-11T12:53:18;4.50;44.80
14101;DHT22;7127;49.372;8.166;2024-01-11T12:56:05;4.50;44.70
14101;DHT22;7127;49.372;8.166;2024-01-11T12:58:46;4.50;44.70
14101;DHT22;7127;49.372;8.166;2024-01-11T13:01:14;4.60;44.70
14101;DHT22;7127;49.372;8.166;2024-01-11T13:04:07;4.60;44.70
14101;DHT22;7127;49.372;8.166;2024-01-11T13:06:35;4.60;44.60
14101;DHT22;7127;49.372;8.166;2024-01-11T13:09:04;4.60;44.70
14101;DHT22;7127;49.372;8.166;2024-01-11T13:11:33;4.40;44.60
14101;DHT22;7127;49.372;8.166;2024-01-11T13:14:00;4.60;44.80
14101;DHT22;7127;49.372;8.166;2024-01-11T13:19:55;4.70;44.80
14101;DHT22;7127;49.372;8.166;2024-01-11T13:22:29;4.70;44.80
14101;DHT22;7127;49.372;8.166;2024-01-11T13:24:58;4.80;44.80
14101;DHT22;7127;49.372;8.166;2024-01-11T13:27:25;4.80;44.80
14101;DHT22;7127;49.372;8.166;2024-01-11T13:29:52;4.80;44.70
14101;DHT22;7127;49.372;8.166;2024-01-11T13:32:19;4.80;44.70
14101;DHT22;7127;49.372;8.166;2024-01-11T13:34:47;4.80;44.60
14101;DHT22;7127;49.372;8.166;2024-01-11T13:37:14;4.80;44.70
14101;DHT22;7127;49.372;8.166;2024-01-11T13:39:41;4.90;44.60
14101;DHT22;7127;49.372;8.166;2024-01-11T13:42:09;4.90;44.60
14101;DHT22;7127;49.372;8.166;2024-01-11T13:44:38;4.90;44.50
14101;DHT22;7127;49.372;8.166;2024-01-11T13:47:05;4.90;44.40
14101;DHT22;7127;49.372;8.166;2024-01-11T13:49:31;5.00;44.50
14101;DHT22;7127;49.372;8.166;2024-01-11T13:52:00;5.00;44.50
14101;DHT22;7127;49.372;8.166;2024-01-11T13:54:26;5.00;44.50
14101;DHT22;7127;49.372;8.166;2024-01-11T13:56:53;5.10;44.50
14101;DHT22;7127;49.372;8.166;2024-01-11T13:59:21;5.00;44.50
14101;DHT22;7127;49.372;8.166;2024-01-11T14:01:49;5.00;44.40
14101;DHT22;7127;49.372;8.166;2024-01-11T14:04:16;5.20;44.60
14101;DHT22;7127;49.372;8.166;2024-01-11T14:06:42;5.00;44.40
14101;DHT22;7127;49.372;8.166;2024-01-11T14:09:09;5.00;44.40
14101;DHT22;7127;49.372;8.166;2024-01-11T14:11:36;5.00;44.40
14101;DHT22;7127;49.372;8.166;2024-01-11T14:14:03;5.00;44.10
14101;DHT22;7127;49.372;8.166;2024-01-11T14:16:31;5.00;44.10
14101;DHT22;7127;49.372;8.166;2024-01-11T14:18:57;5.00;44.10
14101;DHT22;7127;49.372;8.166;2024-01-11T14:21:25;5.00;44.20
14101;DHT22;7127;49.372;8.166;2024-01-11T14:23:52;5.00;44.30
14101;DHT22;7127;49.372;8.166;2024-01-11T14:26:18;5.00;44.10
14101;DHT22;7127;49.372;8.166;2024-01-11T14:28:45;5.00;44.30
14101;DHT22;7127;49.372;8.166;2024-01-11T14:31:12;5.10;44.30
14101;DHT22;7127;49.372;8.166;2024-01-11T14:33:40;5.00;44.30
14101;DHT22;7127;49.372;8.166;2024-01-11T14:36:07;5.00;44.30
14101;DHT22;7127;49.372;8.166;2024-01-11T14:38:34;5.00;44.30
14101;DHT22;7127;49.372;8.166;2024-01-11T14:41:01;5.00;44.30
14101;DHT22;7127;49.372;8.166;2024-01-11T14:43:28;5.00;44.30
14101;DHT22;7127;49.372;8.166;2024-01-11T14:45:55;5.00;44.20
14101;DHT22;7127;49.372;8.166;2024-01-11T14:48:21;5.00;44.10
14101;DHT22;7127;49.372;8.166;2024-01-11T14:50:50;5.00;44.10
14101;DHT22;7127;49.372;8.166;2024-01-11T14:53:16;5.00;44.10
14101;DHT22;7127;49.372;8.166;2024-01-11T14:55:44;5.00;44.10
14101;DHT22;7127;49.372;8.166;2024-01-11T14:58:10;5.00;44.10
14101;DHT22;7127;49.372;8.166;2024-01-11T15:00:37;5.00;44.10
14101;DHT22;7127;49.372;8.166;2024-01-11T15:03:05;4.90;44.10
14101;DHT22;7127;49.372;8.166;2024-01-11T15:05:31;4.90;44.20
14101;DHT22;7127;49.372;8.166;2024-01-11T15:08:00;4.90;44.30
14101;DHT22;7127;49.372;8.166;2024-01-11T15:10:27;4.90;44.30
14101;DHT22;7127;49.372;8.166;2024-01-11T15:12:54;4.90;44.30
14101;DHT22;7127;49.372;8.166;2024-01-11T15:15:22;4.90;44.30
14101;DHT22;7127;49.372;8.166;2024-01-11T15:17:48;4.80;44.30
14101;DHT22;7127;49.372;8.166;2024-01-11T15:20:16;4.80;43.50
14101;DHT22;7127;49.372;8.166;2024-01-11T15:22:42;4.80;44.00
14101;DHT22;7127;49.372;8.166;2024-01-11T15:25:11;4.80;43.40
14101;DHT22;7127;49.372;8.166;2024-01-11T15:27:37;4.70;43.60
14101;DHT22;7127;49.372;8.166;2024-01-11T15:30:05;4.70;43.10
14101;DHT22;7127;49.372;8.166;2024-01-11T15:32:32;4.70;43.00
14101;DHT22;7127;49.372;8.166;2024-01-11T15:34:59;4.70;43.10
14101;DHT22;7127;49.372;8.166;2024-01-11T15:37:25;4.70;42.80
14101;DHT22;7127;49.372;8.166;2024-01-11T15:39:54;4.70;42.60
14101;DHT22;7127;49.372;8.166;2024-01-11T15:42:22;4.70;42.10
14101;DHT22;7127;49.372;8.166;2024-01-11T15:44:49;4.60;41.60
14101;DHT22;7127;49.372;8.166;2024-01-11T15:47:16;4.70;42.10
14101;DHT22;7127;49.372;8.166;2024-01-11T15:49:44;4.70;42.40
14101;DHT22;7127;49.372;8.166;2024-01-11T15:52:11;4.70;42.50
14101;DHT22;7127;49.372;8.166;2024-01-11T15:54:37;4.60;42.50
14101;DHT22;7127;49.372;8.166;2024-01-11T15:57:04;4.70;42.60
14101;DHT22;7127;49.372;8.166;2024-01-11T15:59:33;4.70;42.50
14101;DHT22;7127;49.372;8.166;2024-01-11T16:02:00;4.70;42.40
14101;DHT22;7127;49.372;8.166;2024-01-11T16:04:27;4.70;42.60
14101;DHT22;7127;49.372;8.166;2024-01-11T16:06:54;4.60;41.90
14101;DHT22;7127;49.372;8.166;2024-01-11T16:09:21;4.60;41.90
14101;DHT22;7127;49.372;8.166;2024-01-11T16:11:48;4.60;41.80
14101;DHT22;7127;49.372;8.166;2024-01-11T16:14:15;4.60;41.60
14101;DHT22;7127;49.372;8.166;2024-01-11T16:16:43;4.50;41.90
14101;DHT22;7127;49.372;8.166;2024-01-11T16:19:10;4.50;41.90
14101;DHT22;7127;49.372;8.166;2024-01-11T16:21:37;4.50;40.80
14101;DHT22;7127;49.372;8.166;2024-01-11T16:24:04;4.50;41.70
14101;DHT22;7127;49.372;8.166;2024-01-11T16:26:31;4.40;41.80
14101;DHT22;7127;49.372;8.166;2024-01-11T16:28:58;4.50;41.90
14101;DHT22;7127;49.372;8.166;2024-01-11T16:31:25;4.50;41.50
14101;DHT22;7127;49.372;8.166;2024-01-11T16:33:54;4.50;41.50
14101;DHT22;7127;49.372;8.166;2024-01-11T16:36:21;4.40;41.60
14101;DHT22;7127;49.372;8.166;2024-01-11T16:38:48;4.40;41.60